createdAt,value
2019-03-04T00:01:59.185Z,1.23
2019-03-04T00:04:29.946Z,1.30
2019-03-04T00:06:59.630Z,1.73
2019-03-04T00:09:30.575Z,1.97
2019-03-04T00:12:00.681Z,2.07
2019-03-04T00:14:32.514Z,2.17
2019-03-04T00:17:06.306Z,1.30
2019-03-04T00:19:39.022Z,1.50
2019-03-04T00:22:09.004Z,1.60
2019-03-04T00:24:40.790Z,1.67
2019-03-04T00:27:10.494Z,1.57
2019-03-04T00:29:41.363Z,1.43
2019-03-04T00:32:11.471Z,1.53
2019-03-04T00:34:41.334Z,1.87
2019-03-04T00:37:11.961Z,1.73
2019-03-04T00:39:41.670Z,1.33
2019-03-04T00:42:11.359Z,1.53
2019-03-04T00:44:42.018Z,1.47
2019-03-04T00:47:11.729Z,2.00
2019-03-04T00:49:41.434Z,1.50
2019-03-04T00:52:12.070Z,1.20
2019-03-04T00:54:42.960Z,1.93
2019-03-04T00:57:13.730Z,2.33
2019-03-04T00:59:49.409Z,1.80
2019-03-04T01:02:19.362Z,1.67
2019-03-04T01:04:50.086Z,1.33
2019-03-04T01:07:20.047Z,1.57
2019-03-04T01:09:50.415Z,1.97
2019-03-04T01:12:20.523Z,1.87
2019-03-04T01:14:50.346Z,1.57
2019-03-04T01:17:20.306Z,1.60
2019-03-04T01:19:52.105Z,2.30
2019-03-04T01:22:21.910Z,1.67
2019-03-04T01:24:53.655Z,2.07
2019-03-04T01:27:23.361Z,1.57
2019-03-04T01:29:53.065Z,1.50
2019-03-04T01:32:22.777Z,1.73
2019-03-04T01:34:53.439Z,1.30
2019-03-04T01:37:23.402Z,1.87
2019-03-04T01:39:54.407Z,2.37
2019-03-04T01:42:24.250Z,2.33
2019-03-04T01:45:00.018Z,1.70
2019-03-04T01:47:29.844Z,1.67
2019-03-04T01:50:08.206Z,1.83
2019-03-04T01:52:37.914Z,1.90
2019-03-04T01:55:12.287Z,2.00
2019-03-04T01:57:42.380Z,2.27
2019-03-04T02:00:19.279Z,2.00
2019-03-04T02:02:49.446Z,1.63
2019-03-04T02:05:20.093Z,1.53
2019-03-04T02:07:50.378Z,1.50
2019-03-04T02:10:20.313Z,1.90
2019-03-04T02:12:50.137Z,1.40
2019-03-04T02:15:21.233Z,1.83
2019-03-04T02:17:51.902Z,2.13
2019-03-04T02:20:21.871Z,2.30
2019-03-04T02:22:52.696Z,1.80
2019-03-04T02:25:45.393Z,2.43
2019-03-04T02:28:15.097Z,1.60
2019-03-04T02:30:44.819Z,1.63
2019-03-04T02:33:14.514Z,1.90
2019-03-04T02:35:44.472Z,1.50
2019-03-04T02:38:14.346Z,1.60
2019-03-04T02:40:44.107Z,1.57
2019-03-04T02:43:14.707Z,1.73
2019-03-04T02:45:44.394Z,1.43
2019-03-04T02:48:14.402Z,1.70
2019-03-04T02:50:44.494Z,2.27
2019-03-04T02:53:14.619Z,1.30
2019-03-04T02:55:44.464Z,1.67
2019-03-04T02:58:14.441Z,1.43
2019-03-04T03:00:44.533Z,1.10
2019-03-04T03:03:14.503Z,1.87
2019-03-04T03:05:44.794Z,1.73
2019-03-04T03:08:15.639Z,1.60
2019-03-04T03:10:46.587Z,1.50
2019-03-04T03:13:16.423Z,1.23
2019-03-04T03:15:46.387Z,1.30
2019-03-04T03:18:16.247Z,1.60
2019-03-04T03:20:48.229Z,1.80
2019-03-04T03:23:18.347Z,1.83
2019-03-04T03:25:49.378Z,1.50
2019-03-04T03:28:19.513Z,1.50
2019-03-04T03:30:49.395Z,1.70
2019-03-04T03:33:19.424Z,1.60
2019-03-04T03:35:49.486Z,1.50
2019-03-04T03:38:22.721Z,1.73
2019-03-04T03:40:52.811Z,1.47
2019-03-04T03:43:22.930Z,1.90
2019-03-04T03:45:53.021Z,1.70
2019-03-04T03:48:23.194Z,2.00
2019-03-04T03:50:53.040Z,2.00
2019-03-04T03:53:22.752Z,1.63
2019-03-04T03:55:52.444Z,1.87
2019-03-04T03:58:26.399Z,2.13
2019-03-04T04:00:57.325Z,1.90
2019-03-04T04:03:27.318Z,2.10
2019-03-04T04:05:59.516Z,1.27
2019-03-04T04:08:31.291Z,2.17
2019-03-04T04:11:01.863Z,1.43
2019-03-04T04:13:33.692Z,1.37
2019-03-04T04:16:10.555Z,1.53
2019-03-04T04:18:40.650Z,1.80
2019-03-04T04:21:14.389Z,1.53
2019-03-04T04:23:45.059Z,1.53
2019-03-04T04:26:23.300Z,1.83
2019-03-04T04:29:03.561Z,2.10
2019-03-04T04:31:35.306Z,1.40
2019-03-04T04:34:05.952Z,1.67
2019-03-04T04:36:42.876Z,1.57
2019-03-04T04:39:12.987Z,1.47
2019-03-04T04:41:44.034Z,2.30
2019-03-04T04:44:13.862Z,1.97
2019-03-04T04:46:50.101Z,1.40
2019-03-04T04:49:21.030Z,1.13
2019-03-04T04:51:51.130Z,1.40
2019-03-04T04:54:22.211Z,1.23
2019-03-04T04:56:59.213Z,1.90
2019-03-04T04:59:29.055Z,1.20
2019-03-04T05:01:59.672Z,1.60
2019-03-04T05:04:29.412Z,1.27
2019-03-04T05:06:59.106Z,1.10
2019-03-04T05:09:30.231Z,1.20
2019-03-04T05:12:00.360Z,1.40
2019-03-04T05:14:30.426Z,1.03
2019-03-04T05:17:00.524Z,1.13
2019-03-04T05:19:30.350Z,1.57
2019-03-04T05:22:01.094Z,1.23
2019-03-04T05:24:31.048Z,1.43
2019-03-04T05:27:01.144Z,1.20
2019-03-04T05:29:31.250Z,1.40
2019-03-04T05:32:02.042Z,1.37
2019-03-04T05:34:33.987Z,1.33
2019-03-04T05:37:04.096Z,1.37
2019-03-04T05:39:37.226Z,1.17
2019-03-04T05:42:07.339Z,1.20
2019-03-04T05:44:39.418Z,1.20
2019-03-04T05:47:10.468Z,1.00
2019-03-04T05:49:40.574Z,1.40
2019-03-04T05:52:16.422Z,1.20
2019-03-04T05:54:46.522Z,1.00
2019-03-04T05:57:18.289Z,1.10
2019-03-04T05:59:48.258Z,1.17
2019-03-04T06:02:18.186Z,1.10
2019-03-04T06:04:49.274Z,1.40
2019-03-04T06:07:21.035Z,1.33
2019-03-04T06:09:52.136Z,1.33
2019-03-04T06:12:23.242Z,1.17
2019-03-04T06:14:53.350Z,1.67
2019-03-04T06:17:23.452Z,1.30
2019-03-04T06:19:54.264Z,1.37
2019-03-04T06:22:24.890Z,1.20
2019-03-04T06:24:54.610Z,1.60
2019-03-04T06:27:26.238Z,1.57
2019-03-04T06:29:56.190Z,1.43
2019-03-04T06:32:27.232Z,1.27
2019-03-04T06:34:57.355Z,1.83
2019-03-04T06:37:27.462Z,1.53
2019-03-04T06:39:59.536Z,1.83
2019-03-04T06:42:29.626Z,1.33
2019-03-04T06:45:00.515Z,1.00
2019-03-04T06:47:32.514Z,1.40
2019-03-04T06:50:04.016Z,1.50
2019-03-04T06:52:33.708Z,1.17
2019-03-04T06:55:23.518Z,1.23
2019-03-04T06:57:53.634Z,2.00
2019-03-04T07:00:26.809Z,1.40
2019-03-04T07:03:03.291Z,1.50
2019-03-04T07:05:48.261Z,1.30
2019-03-04T07:08:39.966Z,1.37
2019-03-04T07:11:13.079Z,1.50
2019-03-04T07:13:43.846Z,1.20
2019-03-04T07:16:13.545Z,1.30
2019-03-04T07:18:49.548Z,1.40
2019-03-04T07:21:20.594Z,1.40
2019-03-04T07:23:57.690Z,1.40
2019-03-04T07:26:27.786Z,1.30
2019-03-04T07:28:57.612Z,0.93
2019-03-04T07:31:27.330Z,1.20
2019-03-04T07:33:57.290Z,1.27
2019-03-04T07:36:27.392Z,1.00
2019-03-04T07:38:57.677Z,1.07
2019-03-04T07:41:28.953Z,0.93
2019-03-04T07:43:58.818Z,1.37
2019-03-04T07:46:28.546Z,1.20
2019-03-04T07:48:58.238Z,1.60
2019-03-04T07:51:27.958Z,1.17
2019-03-04T07:54:04.477Z,1.10
2019-03-04T07:56:40.590Z,1.17
2019-03-04T07:59:10.450Z,1.23
2019-03-04T08:01:40.406Z,1.70
2019-03-04T08:04:10.521Z,1.37
2019-03-04T08:06:40.682Z,1.30
2019-03-04T08:09:41.530Z,1.30
2019-03-04T08:12:49.699Z,1.10
2019-03-04T08:15:19.794Z,1.10
2019-03-04T08:17:49.646Z,1.03
2019-03-04T08:20:19.610Z,1.20
2019-03-04T08:22:49.703Z,1.37
2019-03-04T08:25:19.814Z,1.23
2019-03-04T08:27:50.577Z,1.17
2019-03-04T08:30:20.875Z,1.10
2019-03-04T08:32:50.710Z,1.07
2019-03-04T08:35:20.422Z,1.37
2019-03-04T08:37:51.046Z,1.30
2019-03-04T08:40:21.690Z,1.20
2019-03-04T08:42:55.963Z,1.20
2019-03-04T08:45:26.554Z,2.33
2019-03-04T08:47:56.266Z,1.13
2019-03-04T08:50:27.238Z,1.33
2019-03-04T08:52:57.349Z,1.90
2019-03-04T08:55:27.188Z,1.43
2019-03-04T08:58:03.935Z,1.40
2019-03-04T09:00:34.172Z,1.40
2019-03-04T09:03:04.962Z,1.20
2019-03-04T09:05:35.070Z,1.50
2019-03-04T09:08:05.166Z,1.30
2019-03-04T09:10:36.394Z,1.03
2019-03-04T09:13:06.369Z,1.63
2019-03-04T09:15:38.298Z,1.27
2019-03-04T09:18:08.767Z,1.00
2019-03-04T09:20:41.928Z,1.47
2019-03-04T09:23:11.999Z,1.00
2019-03-04T09:25:52.350Z,1.17
2019-03-04T09:28:22.232Z,1.50
2019-03-04T09:30:52.174Z,1.47
2019-03-04T09:33:24.232Z,0.90
2019-03-04T09:35:54.324Z,1.17
2019-03-04T09:38:24.162Z,1.40
2019-03-04T09:40:54.119Z,1.50
2019-03-04T09:43:23.950Z,1.20
2019-03-04T09:45:53.978Z,1.63
2019-03-04T09:48:23.830Z,1.43
2019-03-04T09:50:53.808Z,1.20
2019-03-04T09:53:24.088Z,1.73
2019-03-04T09:55:54.184Z,1.33
2019-03-04T09:58:24.014Z,1.50
2019-03-04T10:01:19.638Z,1.53
2019-03-04T10:03:58.594Z,1.60
2019-03-04T10:06:38.714Z,1.40
2019-03-04T10:09:38.687Z,1.63
2019-03-04T10:12:37.652Z,1.23
2019-03-04T10:15:27.028Z,2.10
2019-03-04T10:18:10.410Z,1.80
2019-03-04T10:21:02.468Z,1.50
2019-03-04T10:23:47.190Z,1.80
2019-03-04T10:26:41.330Z,1.23
2019-03-04T10:29:44.594Z,0.90
2019-03-04T10:32:40.138Z,1.10
2019-03-04T10:35:24.755Z,1.03
2019-03-04T10:38:03.615Z,0.80
2019-03-04T10:40:50.094Z,0.80
2019-03-04T10:43:42.674Z,0.80
2019-03-04T10:46:36.698Z,0.70
2019-03-04T10:49:08.578Z,0.60
2019-03-04T10:51:39.326Z,0.80
2019-03-04T10:54:09.486Z,0.80
2019-03-04T10:56:41.685Z,0.60
2019-03-04T10:59:10.758Z,0.60
2019-03-04T11:01:45.406Z,0.70
2019-03-04T11:04:17.574Z,0.60
2019-03-04T11:06:47.972Z,0.70
2019-03-04T11:09:17.947Z,0.67
2019-03-04T11:11:47.778Z,0.70
2019-03-04T11:14:17.506Z,0.50
2019-03-04T11:16:47.199Z,0.60
2019-03-04T11:19:17.152Z,0.60
2019-03-04T11:21:47.006Z,0.60
2019-03-04T11:24:18.123Z,0.60
2019-03-04T11:26:56.291Z,0.60
2019-03-04T11:29:25.025Z,0.70
2019-03-04T11:31:54.982Z,0.60
2019-03-04T11:34:26.050Z,0.50
2019-03-04T11:36:56.167Z,0.53
2019-03-04T11:39:33.343Z,0.77
2019-03-04T11:42:03.046Z,0.50
2019-03-04T11:44:33.026Z,0.53
2019-03-04T11:47:03.870Z,0.73
2019-03-04T11:49:33.835Z,0.70
2019-03-04T11:52:03.678Z,0.80
2019-03-04T11:54:33.650Z,0.67
2019-03-04T11:57:03.510Z,0.60
2019-03-04T11:59:33.463Z,0.80
2019-03-04T12:02:04.078Z,0.50
2019-03-04T12:04:33.792Z,0.70
2019-03-04T12:07:03.519Z,0.57
2019-03-04T12:09:33.484Z,0.60
2019-03-04T12:12:03.329Z,0.50
2019-03-04T12:14:33.288Z,0.70
2019-03-04T12:17:03.410Z,0.50
2019-03-04T12:19:33.254Z,0.60
2019-03-04T12:22:02.954Z,0.80
2019-03-04T12:24:32.636Z,0.90
2019-03-04T12:27:02.322Z,1.00
2019-03-04T12:29:33.027Z,0.67
2019-03-04T12:32:07.367Z,0.60
2019-03-04T12:34:37.062Z,0.70
2019-03-04T12:37:06.770Z,0.67
2019-03-04T12:39:36.486Z,0.80
2019-03-04T12:42:06.186Z,0.67
2019-03-04T12:44:36.219Z,0.70
2019-03-04T12:47:06.074Z,0.70
2019-03-04T12:49:35.778Z,1.00
2019-03-04T12:52:05.462Z,0.80
2019-03-04T12:54:35.436Z,0.70
2019-03-04T12:57:06.334Z,0.67
2019-03-04T12:59:37.236Z,0.60
2019-03-04T13:02:08.130Z,0.97
2019-03-04T13:04:38.082Z,1.27
2019-03-04T13:07:08.210Z,0.80
2019-03-04T13:09:39.568Z,0.70
2019-03-04T13:12:09.681Z,0.80
2019-03-04T13:14:39.772Z,0.60
2019-03-04T13:17:09.598Z,0.63
2019-03-04T13:19:39.298Z,0.70
2019-03-04T13:22:09.896Z,0.70
2019-03-04T13:24:39.872Z,0.70
2019-03-04T13:27:09.702Z,0.80
2019-03-04T13:29:39.675Z,0.80
2019-03-04T13:32:10.258Z,0.77
2019-03-04T13:34:40.350Z,1.20
2019-03-04T13:37:10.190Z,0.63
2019-03-04T13:39:40.198Z,0.70
2019-03-04T13:42:10.143Z,0.97
2019-03-04T13:44:40.576Z,0.87
2019-03-04T13:47:10.404Z,1.20
2019-03-04T13:49:49.178Z,1.00
2019-03-04T13:52:21.090Z,1.13
2019-03-04T13:54:50.998Z,0.73
2019-03-04T13:57:24.270Z,0.77
2019-03-04T13:59:54.418Z,0.80
2019-03-04T14:02:24.504Z,1.33
2019-03-04T14:04:54.589Z,0.80
2019-03-04T14:07:24.724Z,1.20
2019-03-04T14:10:06.714Z,1.00
2019-03-04T14:12:42.786Z,1.17
2019-03-04T14:15:23.642Z,0.90
2019-03-04T14:17:53.994Z,0.47
2019-03-04T14:20:24.071Z,1.97
2019-03-04T14:22:57.721Z,0.60
2019-03-04T14:25:27.723Z,0.93
2019-03-04T14:27:57.690Z,0.80
2019-03-04T14:30:27.942Z,0.83
2019-03-04T14:32:58.036Z,0.80
2019-03-04T14:35:29.080Z,0.77
2019-03-04T14:37:58.929Z,1.10
2019-03-04T14:40:28.870Z,1.30
2019-03-04T14:42:59.144Z,0.63
2019-03-04T14:45:29.710Z,1.00
2019-03-04T14:48:00.704Z,1.13
2019-03-04T14:50:30.911Z,0.70
2019-03-04T14:53:01.012Z,0.97
2019-03-04T14:55:40.533Z,1.13
2019-03-04T14:58:10.363Z,0.87
2019-03-04T15:00:44.544Z,0.80
2019-03-04T15:03:23.265Z,0.90
2019-03-04T15:05:47.459Z,1.27
2019-03-04T15:08:19.298Z,0.70
2019-03-04T15:10:49.749Z,0.50
2019-03-04T15:13:22.524Z,0.70
2019-03-04T15:16:01.030Z,0.90
2019-03-04T15:18:25.403Z,0.90
2019-03-04T15:20:56.258Z,0.93
2019-03-04T15:23:27.226Z,1.37
2019-03-04T15:25:57.934Z,0.70
2019-03-04T15:28:27.702Z,0.87
2019-03-04T15:31:02.739Z,1.13
2019-03-04T15:33:33.831Z,1.07
2019-03-04T15:36:03.728Z,0.90
2019-03-04T15:38:33.415Z,0.90
2019-03-04T15:41:03.130Z,1.70
2019-03-04T15:43:32.905Z,0.93
2019-03-04T15:46:06.712Z,1.33
2019-03-04T15:48:36.561Z,1.40
2019-03-04T15:51:12.553Z,1.03
2019-03-04T15:53:43.543Z,1.80
2019-03-04T15:56:13.402Z,1.00
2019-03-04T15:58:44.094Z,0.77
2019-03-04T16:01:15.899Z,0.93
2019-03-04T16:03:46.615Z,0.90
2019-03-04T16:06:25.855Z,1.00
2019-03-04T16:09:02.435Z,0.80
2019-03-04T16:11:40.055Z,1.30
2019-03-04T16:14:09.741Z,1.70
2019-03-04T16:16:45.686Z,1.03
2019-03-04T16:19:16.732Z,1.47
2019-03-04T16:21:52.348Z,1.20
2019-03-04T16:24:22.088Z,1.10
2019-03-04T16:26:53.938Z,1.00
2019-03-04T16:29:23.767Z,0.97
2019-03-04T16:31:59.608Z,1.00
2019-03-04T16:34:29.716Z,2.00
2019-03-04T16:37:05.395Z,1.43
2019-03-04T16:39:35.576Z,1.80
2019-03-04T16:42:07.995Z,0.90
2019-03-04T16:44:39.876Z,1.20
2019-03-04T16:47:09.163Z,0.80
2019-03-04T16:49:39.167Z,1.40
2019-03-04T16:52:08.999Z,0.80
2019-03-04T16:54:39.039Z,1.20
2019-03-04T16:57:11.623Z,0.77
2019-03-04T16:59:41.659Z,1.27
2019-03-04T17:02:11.487Z,0.70
2019-03-04T17:04:47.531Z,0.60
2019-03-04T17:07:17.629Z,0.70
2019-03-04T17:09:48.692Z,0.80
2019-03-04T17:12:19.409Z,0.70
2019-03-04T17:14:50.396Z,0.50
2019-03-04T17:17:20.445Z,0.60
2019-03-04T17:19:53.556Z,0.60
2019-03-04T17:22:30.350Z,0.60
2019-03-04T17:25:01.344Z,0.50
2019-03-04T17:27:31.302Z,0.60
2019-03-04T17:30:01.455Z,0.63
2019-03-04T17:32:33.100Z,0.63
2019-03-04T17:35:03.549Z,0.50
2019-03-04T17:37:33.670Z,0.80
2019-03-04T17:40:05.051Z,0.60
2019-03-04T17:42:34.736Z,0.50
2019-03-04T17:45:07.685Z,0.70
2019-03-04T17:47:38.151Z,0.90
2019-03-04T17:50:12.659Z,0.60
2019-03-04T17:52:42.832Z,0.77
2019-03-04T17:55:16.351Z,0.60
2019-03-04T17:57:46.344Z,0.60
2019-03-04T18:00:19.123Z,1.27
2019-03-04T18:02:59.007Z,0.87
2019-03-04T18:05:31.923Z,0.60
2019-03-04T18:08:07.450Z,0.60
2019-03-04T18:10:37.139Z,1.10
2019-03-04T18:13:10.719Z,0.60
2019-03-04T18:15:42.612Z,0.77
2019-03-04T18:18:18.530Z,0.60
2019-03-04T18:20:49.616Z,0.60
2019-03-04T18:23:19.442Z,0.50
2019-03-04T18:26:10.832Z,0.50
2019-03-04T18:29:03.492Z,0.70
2019-03-04T18:32:09.171Z,0.77
2019-03-04T18:35:25.765Z,0.60
2019-03-04T18:38:03.337Z,0.70
2019-03-04T18:41:15.567Z,0.70
2019-03-04T18:43:54.635Z,0.70
2019-03-04T18:46:44.531Z,0.50
2019-03-04T18:49:15.239Z,0.70
2019-03-04T18:51:45.200Z,0.60
2019-03-04T18:54:15.102Z,0.70
2019-03-04T18:56:49.189Z,0.87
2019-03-04T18:59:19.015Z,1.40
2019-03-04T19:01:48.980Z,2.40
2019-03-04T19:04:18.799Z,1.00
2019-03-04T19:06:48.527Z,1.10
2019-03-04T19:09:18.231Z,1.20
2019-03-04T19:11:50.103Z,1.30
2019-03-04T19:14:20.210Z,1.93
2019-03-04T19:16:50.177Z,1.13
2019-03-04T19:19:22.221Z,1.00
2019-03-04T19:21:52.063Z,2.27
2019-03-04T19:24:22.707Z,2.30
2019-03-04T19:26:52.695Z,1.97
2019-03-04T19:29:26.243Z,1.10
2019-03-04T19:31:56.276Z,1.07
2019-03-04T19:34:26.103Z,0.97
2019-03-04T19:36:56.622Z,2.60
2019-03-04T19:39:27.679Z,2.10
2019-03-04T19:41:57.511Z,3.63
2019-03-04T19:44:28.441Z,2.53
2019-03-04T19:46:58.532Z,2.00
2019-03-04T19:49:29.636Z,1.37
2019-03-04T19:52:00.239Z,2.17
2019-03-04T19:54:29.923Z,1.00
2019-03-04T19:57:00.668Z,1.35
2019-03-04T19:59:32.387Z,1.95
2019-03-04T20:02:02.287Z,1.40
2019-03-04T20:04:33.519Z,1.25
2019-03-04T20:07:03.532Z,1.97
2019-03-04T20:09:34.810Z,3.08
2019-03-04T20:12:05.000Z,3.22
2019-03-04T20:14:36.003Z,1.75
2019-03-04T20:17:06.763Z,5.55
2019-03-04T20:19:37.652Z,3.50
2019-03-04T20:22:07.487Z,4.85
2019-03-04T20:24:37.190Z,1.90
2019-03-04T20:27:06.930Z,1.50
2019-03-04T20:29:37.850Z,3.33
2019-03-04T20:32:11.090Z,1.72
2019-03-04T20:34:41.895Z,1.47
2019-03-04T20:37:12.580Z,1.98
2019-03-04T20:39:42.331Z,1.25
2019-03-04T20:42:12.427Z,1.30
2019-03-04T20:44:43.796Z,1.60
2019-03-04T20:47:14.813Z,1.40
2019-03-04T20:49:44.915Z,3.22
2019-03-04T20:52:20.876Z,1.25
2019-03-04T20:54:52.207Z,1.62
2019-03-04T20:57:23.238Z,1.98
2019-03-04T21:00:00.019Z,1.25
2019-03-04T21:02:30.136Z,1.45
2019-03-04T21:05:10.610Z,1.50
2019-03-04T21:07:40.800Z,1.50
2019-03-04T21:10:12.486Z,1.05
2019-03-04T21:12:42.570Z,1.50
2019-03-04T21:15:14.487Z,1.25
2019-03-04T21:17:44.378Z,1.77
2019-03-04T21:20:21.523Z,1.53
2019-03-04T21:22:53.526Z,1.00
2019-03-04T21:25:38.950Z,1.07
2019-03-04T21:28:14.718Z,1.40
2019-03-04T21:30:59.388Z,1.57
2019-03-04T21:33:44.144Z,1.17
2019-03-04T21:36:37.900Z,1.25
2019-03-04T21:39:09.631Z,1.32
2019-03-04T21:41:53.034Z,1.30
2019-03-04T21:44:34.914Z,1.30
2019-03-04T21:47:18.727Z,1.80
2019-03-04T21:49:51.382Z,1.10
2019-03-04T21:52:42.442Z,1.27
2019-03-04T21:55:19.778Z,3.08
2019-03-04T21:57:52.358Z,4.50
2019-03-04T22:00:29.067Z,1.10
2019-03-04T22:03:09.250Z,1.25
2019-03-04T22:05:49.494Z,1.05
2019-03-04T22:08:11.458Z,1.15
2019-03-04T22:10:41.696Z,1.45
2019-03-04T22:13:12.002Z,1.30
2019-03-04T22:15:42.713Z,2.70
2019-03-04T22:18:13.409Z,1.67
2019-03-04T22:20:43.581Z,1.50
2019-03-04T22:23:14.707Z,1.10
2019-03-04T22:25:46.784Z,1.98
2019-03-04T22:28:16.739Z,1.20
2019-03-04T22:30:53.430Z,1.55
2019-03-04T22:33:23.199Z,1.45
2019-03-04T22:35:53.941Z,1.20
2019-03-04T22:38:23.628Z,1.20
2019-03-04T22:40:56.207Z,0.90
2019-03-04T22:43:27.292Z,2.15
2019-03-04T22:45:58.374Z,1.20
2019-03-04T22:48:28.228Z,1.20
2019-03-04T22:51:05.065Z,1.05
2019-03-04T22:53:34.919Z,1.30
2019-03-04T22:56:04.687Z,1.22
2019-03-04T22:58:35.942Z,1.35
2019-03-04T23:01:15.832Z,1.62
2019-03-04T23:03:45.930Z,1.42
2019-03-04T23:06:23.525Z,1.60
2019-03-04T23:08:53.417Z,1.60
2019-03-04T23:11:26.186Z,1.30
2019-03-04T23:14:07.811Z,1.30
2019-03-04T23:16:38.910Z,1.27
2019-03-04T23:19:11.794Z,1.32
2019-03-04T23:21:42.545Z,1.32
2019-03-04T23:24:12.266Z,1.20
2019-03-04T23:26:43.851Z,1.20
2019-03-04T23:29:13.816Z,1.47
2019-03-04T23:31:43.543Z,1.15
2019-03-04T23:34:13.319Z,1.55
2019-03-04T23:36:43.250Z,1.47
2019-03-04T23:39:13.367Z,1.35
2019-03-04T23:41:44.150Z,1.17
2019-03-04T23:44:14.196Z,1.30
2019-03-04T23:46:46.298Z,1.22
2019-03-04T23:49:16.962Z,1.55
2019-03-04T23:51:46.662Z,1.55
2019-03-04T23:54:16.899Z,1.30
2019-03-04T23:56:46.755Z,1.00
2019-03-04T23:59:17.339Z,1.20
